Crown Topaz — 3FAS9 — position and weather

sailwx.info

Track history (hours):
 
Tides and Currents Weather Stations Pressure Air Temp Water Temp Dewpoint Dewpoint Depression Visibility Wind Speed Wind Dir Waves Ship Positions

Crown Topaz

Last reported at 2014-Dec-15 02:32 UTC. Time now 2014-Dec-19 11:58 UTC.
Position N 38°03' W 030°14'.

Length 152 m; draft 7 m.

Type: Cargo ship. MMSI: 357144000.

Date/timePositionNaut miles runAvg speedWind from/ knotsBaromVisibWave heightAir tempDewpointWater temp
2014-Dec-15 02:32N 38°03' W 030°14'1919.5
2014-Dec-15 01:34N 38°15' W 029°55'1919.5
2014-Dec-15 00:34N 38°27' W 029°36'2019.8
2014-Dec-14 23:34N 38°40' W 029°16'2019.6
2014-Dec-14 22:34N 38°52' W 028°57'2019.9
2014-Dec-14 21:34N 39°04' W 028°37'2019.6
2014-Dec-14 20:34N 39°16' W 028°16'2019.5
2014-Dec-14 19:34N 39°23' W 027°53'2019.5
2014-Dec-14 18:33N 39°31' W 027°30'2019.2
2014-Dec-14 17:30N 39°38' W 027°05'1819.2
2014-Dec-14 16:33N 39°45' W 026°43'  
2014-Dec-11 16:17N 49°55' W 003°30'110 9.1
2014-Dec-11 04:09N 49°39' W 000°41'1219.6
2014-Dec-11 03:33N 49°35' W 000°24'1616.3
2014-Dec-11 02:33N 49°28' W 000°01'1110.8
2014-Dec-11 01:33N 49°26' E 000°15'8 0.7
2014-Dec-10 14:34N 49°28' E 000°27'1313.0
2014-Dec-10 13:33N 49°26' E 000°07'9 8.6
2014-Dec-10 12:33N 49°29' W 000°05'5 5.0
2014-Dec-10 11:33N 49°33' W 000°10'5417.1
2014-Dec-10 08:23N 50°27' W 000°04'1517.7
2014-Dec-10 07:33N 50°31' E 000°18'1817.8
2014-Dec-10 06:33N 50°38' E 000°44'1817.7
2014-Dec-10 05:32N 50°50' E 001°06'1515.6
2014-Dec-10 04:33N 50°60' E 001°25'1312.5
2014-Dec-10 03:33N 51°09' E 001°39'1313.3
2014-Dec-10 02:33N 51°20' E 001°51'1211.8
2014-Dec-10 01:33N 51°22' E 002°09'1514.7
2014-Dec-10 00:33N 51°23' E 002°33'1111.0
2014-Dec-09 23:33N 51°22' E 002°50'1615.6
2014-Dec-09 22:33N 51°25' E 003°15'1413.7
2014-Dec-09 21:33N 51°26' E 003°37'1111.5
2014-Dec-09 20:33N 51°22' E 003°54'10 9.8
2014-Dec-09 19:33N 51°23' E 004°09'9 9.1
2014-Dec-09 18:34N 51°17' E 004°20'0 0.2
2014-Dec-09 17:34N 51°16' E 004°20'2 1.8
2014-Dec-09 16:33N 51°16' E 004°23'0 0.0
2014-Dec-09 15:33N 51°16' E 004°23'0 0.0
2014-Dec-09 14:33N 51°16' E 004°23'0 0.0
2014-Dec-09 13:33N 51°16' E 004°23'0 0.0
2014-Dec-09 12:33N 51°16' E 004°23'0 0.0
2014-Dec-09 11:33N 51°16' E 004°23'0 0.0
2014-Dec-09 10:33N 51°16' E 004°23'0 0.0
2014-Dec-09 09:33N 51°16' E 004°23'0 0.0
2014-Dec-09 08:33N 51°16' E 004°23'0 0.0
2014-Dec-09 07:33N 51°16' E 004°23'0 0.0
2014-Dec-09 06:33N 51°16' E 004°23'0 0.0
2014-Dec-09 05:33N 51°16' E 004°23'0 0.0
2014-Dec-09 04:33N 51°16' E 004°23'0 0.0
2014-Dec-09 03:33N 51°16' E 004°23'0 0.0
2014-Dec-09 02:33N 51°16' E 004°23'0 0.0
2014-Dec-09 01:33N 51°16' E 004°23'0 0.0
2014-Dec-09 00:33N 51°16' E 004°23'0 0.0
2014-Dec-08 23:33N 51°16' E 004°23'0 0.0
2014-Dec-08 22:33N 51°16' E 004°23'0 0.0
2014-Dec-08 21:33N 51°16' E 004°23'0 0.0
2014-Dec-08 20:33N 51°16' E 004°23'0 0.0
2014-Dec-08 19:33N 51°16' E 004°23'0 0.0
2014-Dec-08 18:30N 51°16' E 004°23'0 0.0
2014-Dec-08 17:33N 51°16' E 004°23'0 0.0
2014-Dec-08 16:33N 51°16' E 004°23'0 0.0
2014-Dec-08 15:33N 51°16' E 004°23'0 0.0
2014-Dec-08 14:33N 51°16' E 004°23'0 0.0
2014-Dec-08 13:33N 51°16' E 004°23'0 0.0
2014-Dec-08 12:33N 51°16' E 004°23'4 3.8
2014-Dec-08 11:33N 51°19' E 004°19'2 2.4
2014-Dec-08 10:34N 51°21' E 004°17'0 0.3
2014-Dec-08 09:34N 51°21' E 004°17'7 6.6
2014-Dec-08 08:34N 51°22' E 004°06'8 7.6
2014-Dec-08 07:33N 51°22' E 003°54'1010.1
2014-Dec-08 06:34N 51°26' E 003°40'1010.2
2014-Dec-08 05:33N 51°25' E 003°24'1616.2
2014-Dec-08 04:34N 51°25' E 002°58'1513.0
2014-Dec-08 03:26N 51°22' E 002°35'1113.0
2014-Dec-08 02:33N 51°18' E 002°18'1313.3
2014-Dec-08 01:33N 51°11' E 001°60'1313.0
2014-Dec-08 00:34N 51°05' E 001°41'1615.3
2014-Dec-07 23:32N 50°54' E 001°25'4814.9
2014-Dec-07 20:19N 50°25' E 000°23'3015.1
2014-Dec-07 18:20N 50°27' W 000°24'1215.2
2014-Dec-07 17:34N 50°34' W 000°39'1414.4
2014-Dec-07 16:34N 50°42' W 000°58'8 7.7
2014-Dec-07 15:33N 50°47' W 001°07'1 1.2
2014-Dec-07 14:28N 50°49' W 001°06'0 0.0
2014-Dec-07 13:31N 50°49' W 001°06'0 0.0
2014-Dec-07 12:31N 50°49' W 001°06'0 0.0
2014-Dec-07 11:25N 50°49' W 001°06'0 0.0
2014-Dec-07 10:31N 50°49' W 001°06'0 0.0
2014-Dec-07 09:31N 50°49' W 001°06'0 0.0
2014-Dec-07 08:31N 50°49' W 001°06'0 0.0
2014-Dec-07 07:31N 50°49' W 001°06'0 0.0
2014-Dec-07 06:31N 50°49' W 001°06'0 0.0
2014-Dec-07 05:31N 50°49' W 001°06'0 0.0
2014-Dec-07 04:31N 50°49' W 001°06'0 0.0
2014-Dec-07 03:31N 50°49' W 001°06'0 0.0
2014-Dec-07 02:31N 50°49' W 001°06'0 0.0
2014-Dec-07 01:31N 50°49' W 001°06'0 0.0
2014-Dec-07 00:31N 50°49' W 001°06'0 0.0
2014-Dec-06 23:31N 50°49' W 001°06'0 0.0
2014-Dec-06 22:31N 50°49' W 001°06'0 0.0
2014-Dec-06 21:31N 50°49' W 001°06'0 0.0
2014-Dec-06 20:31N 50°49' W 001°06'1 1.2
2014-Dec-06 19:33N 50°48' W 001°07'9 9.4
2014-Dec-06 18:33N 50°40' W 000°58'1211.3
2014-Dec-06 17:30N 50°29' W 001°07'3618.4
2014-Dec-06 15:33N 50°16' W 001°59'3216.1
2014-Dec-06 13:33N 50°08' W 002°48'  
Track history (hours):
 
Tides and Currents Weather Stations Pressure Air Temp Water Temp Dewpoint Dewpoint Depression Visibility Wind Speed Wind Dir Waves Ship Positions

Crown Topaz

Last reported at 2014-Dec-15 02:32 UTC. Time now 2014-Dec-19 11:58 UTC.
Position N 38°03' W 030°14'.

Length 152 m; draft 7 m.

Type: Cargo ship. MMSI: 357144000.

Date/timePositionNaut miles runAvg speedWind from/ knotsBaromVisibWave heightAir tempDewpointWater temp
2014-Dec-15 02:32N 38°03' W 030°14'1919.5
2014-Dec-15 01:34N 38°15' W 029°55'1919.5
2014-Dec-15 00:34N 38°27' W 029°36'2019.8
2014-Dec-14 23:34N 38°40' W 029°16'2019.6
2014-Dec-14 22:34N 38°52' W 028°57'2019.9
2014-Dec-14 21:34N 39°04' W 028°37'2019.6
2014-Dec-14 20:34N 39°16' W 028°16'2019.5
2014-Dec-14 19:34N 39°23' W 027°53'2019.5
2014-Dec-14 18:33N 39°31' W 027°30'2019.2
2014-Dec-14 17:30N 39°38' W 027°05'1819.2
2014-Dec-14 16:33N 39°45' W 026°43'  
2014-Dec-11 16:17N 49°55' W 003°30'110 9.1
2014-Dec-11 04:09N 49°39' W 000°41'1219.6
2014-Dec-11 03:33N 49°35' W 000°24'1616.3
2014-Dec-11 02:33N 49°28' W 000°01'1110.8
2014-Dec-11 01:33N 49°26' E 000°15'8 0.7
2014-Dec-10 14:34N 49°28' E 000°27'1313.0
2014-Dec-10 13:33N 49°26' E 000°07'9 8.6
2014-Dec-10 12:33N 49°29' W 000°05'5 5.0
2014-Dec-10 11:33N 49°33' W 000°10'5417.1
2014-Dec-10 08:23N 50°27' W 000°04'1517.7
2014-Dec-10 07:33N 50°31' E 000°18'1817.8
2014-Dec-10 06:33N 50°38' E 000°44'1817.7
2014-Dec-10 05:32N 50°50' E 001°06'1515.6
2014-Dec-10 04:33N 50°60' E 001°25'1312.5
2014-Dec-10 03:33N 51°09' E 001°39'1313.3
2014-Dec-10 02:33N 51°20' E 001°51'1211.8
2014-Dec-10 01:33N 51°22' E 002°09'1514.7
2014-Dec-10 00:33N 51°23' E 002°33'1111.0
2014-Dec-09 23:33N 51°22' E 002°50'1615.6
2014-Dec-09 22:33N 51°25' E 003°15'1413.7
2014-Dec-09 21:33N 51°26' E 003°37'1111.5
2014-Dec-09 20:33N 51°22' E 003°54'10 9.8
2014-Dec-09 19:33N 51°23' E 004°09'9 9.1
2014-Dec-09 18:34N 51°17' E 004°20'0 0.2
2014-Dec-09 17:34N 51°16' E 004°20'2 1.8
2014-Dec-09 16:33N 51°16' E 004°23'0 0.0
2014-Dec-09 15:33N 51°16' E 004°23'0 0.0
2014-Dec-09 14:33N 51°16' E 004°23'0 0.0
2014-Dec-09 13:33N 51°16' E 004°23'0 0.0
2014-Dec-09 12:33N 51°16' E 004°23'0 0.0
2014-Dec-09 11:33N 51°16' E 004°23'0 0.0
2014-Dec-09 10:33N 51°16' E 004°23'0 0.0
2014-Dec-09 09:33N 51°16' E 004°23'0 0.0
2014-Dec-09 08:33N 51°16' E 004°23'0 0.0
2014-Dec-09 07:33N 51°16' E 004°23'0 0.0
2014-Dec-09 06:33N 51°16' E 004°23'0 0.0
2014-Dec-09 05:33N 51°16' E 004°23'0 0.0
2014-Dec-09 04:33N 51°16' E 004°23'0 0.0
2014-Dec-09 03:33N 51°16' E 004°23'0 0.0
2014-Dec-09 02:33N 51°16' E 004°23'0 0.0
2014-Dec-09 01:33N 51°16' E 004°23'0 0.0
2014-Dec-09 00:33N 51°16' E 004°23'0 0.0
2014-Dec-08 23:33N 51°16' E 004°23'0 0.0
2014-Dec-08 22:33N 51°16' E 004°23'0 0.0
2014-Dec-08 21:33N 51°16' E 004°23'0 0.0
2014-Dec-08 20:33N 51°16' E 004°23'0 0.0
2014-Dec-08 19:33N 51°16' E 004°23'0 0.0
2014-Dec-08 18:30N 51°16' E 004°23'0 0.0
2014-Dec-08 17:33N 51°16' E 004°23'0 0.0
2014-Dec-08 16:33N 51°16' E 004°23'0 0.0
2014-Dec-08 15:33N 51°16' E 004°23'0 0.0
2014-Dec-08 14:33N 51°16' E 004°23'0 0.0
2014-Dec-08 13:33N 51°16' E 004°23'0 0.0
2014-Dec-08 12:33N 51°16' E 004°23'4 3.8
2014-Dec-08 11:33N 51°19' E 004°19'2 2.4
2014-Dec-08 10:34N 51°21' E 004°17'0 0.3
2014-Dec-08 09:34N 51°21' E 004°17'7 6.6
2014-Dec-08 08:34N 51°22' E 004°06'8 7.6
2014-Dec-08 07:33N 51°22' E 003°54'1010.1
2014-Dec-08 06:34N 51°26' E 003°40'1010.2
2014-Dec-08 05:33N 51°25' E 003°24'1616.2
2014-Dec-08 04:34N 51°25' E 002°58'1513.0
2014-Dec-08 03:26N 51°22' E 002°35'1113.0
2014-Dec-08 02:33N 51°18' E 002°18'1313.3
2014-Dec-08 01:33N 51°11' E 001°60'1313.0
2014-Dec-08 00:34N 51°05' E 001°41'1615.3
2014-Dec-07 23:32N 50°54' E 001°25'4814.9
2014-Dec-07 20:19N 50°25' E 000°23'3015.1
2014-Dec-07 18:20N 50°27' W 000°24'1215.2
2014-Dec-07 17:34N 50°34' W 000°39'1414.4
2014-Dec-07 16:34N 50°42' W 000°58'8 7.7
2014-Dec-07 15:33N 50°47' W 001°07'1 1.2
2014-Dec-07 14:28N 50°49' W 001°06'0 0.0
2014-Dec-07 13:31N 50°49' W 001°06'0 0.0
2014-Dec-07 12:31N 50°49' W 001°06'0 0.0
2014-Dec-07 11:25N 50°49' W 001°06'0 0.0
2014-Dec-07 10:31N 50°49' W 001°06'0 0.0
2014-Dec-07 09:31N 50°49' W 001°06'0 0.0
2014-Dec-07 08:31N 50°49' W 001°06'0 0.0
2014-Dec-07 07:31N 50°49' W 001°06'0 0.0
2014-Dec-07 06:31N 50°49' W 001°06'0 0.0
2014-Dec-07 05:31N 50°49' W 001°06'0 0.0
2014-Dec-07 04:31N 50°49' W 001°06'0 0.0
2014-Dec-07 03:31N 50°49' W 001°06'0 0.0
2014-Dec-07 02:31N 50°49' W 001°06'0 0.0
2014-Dec-07 01:31N 50°49' W 001°06'0 0.0
2014-Dec-07 00:31N 50°49' W 001°06'0 0.0
2014-Dec-06 23:31N 50°49' W 001°06'0 0.0
2014-Dec-06 22:31N 50°49' W 001°06'0 0.0
2014-Dec-06 21:31N 50°49' W 001°06'0 0.0
2014-Dec-06 20:31N 50°49' W 001°06'1 1.2
2014-Dec-06 19:33N 50°48' W 001°07'9 9.4
2014-Dec-06 18:33N 50°40' W 000°58'1211.3
2014-Dec-06 17:30N 50°29' W 001°07'3618.4
2014-Dec-06 15:33N 50°16' W 001°59'3216.1
2014-Dec-06 13:33N 50°08' W 002°48'  

Dump ship's entire track history